sensor_id;sensor_type;location;lat;lon;timestamp;P1;durP1;ratioP1;P2;durP2;ratioP2
38117;SDS011;23928;47.562;7.508;2023-04-15T00:00:24;5.53;;;2.47;;
38117;SDS011;23928;47.562;7.508;2023-04-15T00:02:50;4.90;;;2.37;;
38117;SDS011;23928;47.562;7.508;2023-04-15T00:05:17;4.63;;;2.50;;
38117;SDS011;23928;47.562;7.508;2023-04-15T00:07:42;4.40;;;2.00;;
38117;SDS011;23928;47.562;7.508;2023-04-15T00:10:09;5.37;;;2.57;;
38117;SDS011;23928;47.562;7.508;2023-04-15T00:12:35;5.30;;;2.60;;
38117;SDS011;23928;47.562;7.508;2023-04-15T00:15:01;4.17;;;2.30;;
38117;SDS011;23928;47.562;7.508;2023-04-15T00:17:26;10.17;;;2.70;;
38117;SDS011;23928;47.562;7.508;2023-04-15T00:19:52;4.23;;;2.30;;
38117;SDS011;23928;47.562;7.508;2023-04-15T00:22:18;4.93;;;2.60;;
38117;SDS011;23928;47.562;7.508;2023-04-15T00:24:44;5.57;;;2.27;;
38117;SDS011;23928;47.562;7.508;2023-04-15T00:27:09;4.80;;;2.40;;
38117;SDS011;23928;47.562;7.508;2023-04-15T00:29:35;5.17;;;2.67;;
38117;SDS011;23928;47.562;7.508;2023-04-15T00:32:01;6.40;;;2.30;;
38117;SDS011;23928;47.562;7.508;2023-04-15T00:34:27;4.30;;;2.63;;
38117;SDS011;23928;47.562;7.508;2023-04-15T00:36:53;2.43;;;2.20;;
38117;SDS011;23928;47.562;7.508;2023-04-15T00:39:18;7.47;;;2.60;;
38117;SDS011;23928;47.562;7.508;2023-04-15T00:41:45;3.87;;;2.30;;
38117;SDS011;23928;47.562;7.508;2023-04-15T00:44:10;4.43;;;2.23;;
38117;SDS011;23928;47.562;7.508;2023-04-15T00:46:36;3.93;;;1.97;;
38117;SDS011;23928;47.562;7.508;2023-04-15T00:49:04;4.90;;;2.67;;
38117;SDS011;23928;47.562;7.508;2023-04-15T00:51:30;4.83;;;2.40;;
38117;SDS011;23928;47.562;7.508;2023-04-15T00:53:58;4.97;;;2.30;;
38117;SDS011;23928;47.562;7.508;2023-04-15T00:56:24;3.70;;;2.47;;
38117;SDS011;23928;47.562;7.508;2023-04-15T00:58:51;3.43;;;2.10;;
38117;SDS011;23928;47.562;7.508;2023-04-15T01:01:20;5.37;;;2.63;;
38117;SDS011;23928;47.562;7.508;2023-04-15T01:03:47;4.67;;;2.70;;
38117;SDS011;23928;47.562;7.508;2023-04-15T01:06:14;3.20;;;2.47;;
38117;SDS011;23928;47.562;7.508;2023-04-15T01:08:39;4.57;;;2.30;;
38117;SDS011;23928;47.562;7.508;2023-04-15T01:11:05;4.90;;;2.33;;
38117;SDS011;23928;47.562;7.508;2023-04-15T01:13:32;5.87;;;2.50;;
38117;SDS011;23928;47.562;7.508;2023-04-15T01:15:58;5.20;;;2.20;;
38117;SDS011;23928;47.562;7.508;2023-04-15T01:18:24;3.60;;;2.40;;
38117;SDS011;23928;47.562;7.508;2023-04-15T01:20:51;4.67;;;2.23;;
38117;SDS011;23928;47.562;7.508;2023-04-15T01:23:17;6.03;;;2.27;;
38117;SDS011;23928;47.562;7.508;2023-04-15T01:25:42;4.50;;;2.10;;
38117;SDS011;23928;47.562;7.508;2023-04-15T01:28:09;4.73;;;2.40;;
38117;SDS011;23928;47.562;7.508;2023-04-15T01:30:35;3.87;;;2.43;;
38117;SDS011;23928;47.562;7.508;2023-04-15T01:33:01;4.07;;;2.30;;
38117;SDS011;23928;47.562;7.508;2023-04-15T01:35:27;3.80;;;2.20;;
38117;SDS011;23928;47.562;7.508;2023-04-15T01:37:53;5.20;;;2.43;;
38117;SDS011;23928;47.562;7.508;2023-04-15T01:40:19;3.90;;;2.50;;
38117;SDS011;23928;47.562;7.508;2023-04-15T01:42:45;5.13;;;2.57;;
38117;SDS011;23928;47.562;7.508;2023-04-15T01:45:11;3.73;;;2.03;;
38117;SDS011;23928;47.562;7.508;2023-04-15T01:47:38;5.00;;;2.50;;
38117;SDS011;23928;47.562;7.508;2023-04-15T01:50:04;3.57;;;2.00;;
38117;SDS011;23928;47.562;7.508;2023-04-15T01:52:30;6.50;;;2.63;;
38117;SDS011;23928;47.562;7.508;2023-04-15T01:54:57;4.03;;;1.93;;
38117;SDS011;23928;47.562;7.508;2023-04-15T01:57:23;4.33;;;2.07;;
38117;SDS011;23928;47.562;7.508;2023-04-15T01:59:49;7.50;;;2.80;;
38117;SDS011;23928;47.562;7.508;2023-04-15T02:02:14;4.27;;;2.70;;
38117;SDS011;23928;47.562;7.508;2023-04-15T02:04:41;4.47;;;2.00;;
38117;SDS011;23928;47.562;7.508;2023-04-15T02:07:07;4.10;;;2.17;;
38117;SDS011;23928;47.562;7.508;2023-04-15T02:09:32;4.70;;;2.03;;
38117;SDS011;23928;47.562;7.508;2023-04-15T02:11:58;6.13;;;2.10;;
38117;SDS011;23928;47.562;7.508;2023-04-15T02:14:24;4.83;;;1.90;;
38117;SDS011;23928;47.562;7.508;2023-04-15T02:16:51;4.73;;;2.47;;
38117;SDS011;23928;47.562;7.508;2023-04-15T02:19:16;6.70;;;2.13;;
38117;SDS011;23928;47.562;7.508;2023-04-15T02:21:42;3.37;;;1.80;;
38117;SDS011;23928;47.562;7.508;2023-04-15T02:24:07;6.43;;;2.30;;
38117;SDS011;23928;47.562;7.508;2023-04-15T02:26:33;4.13;;;2.03;;
38117;SDS011;23928;47.562;7.508;2023-04-15T02:28:59;4.43;;;2.00;;
38117;SDS011;23928;47.562;7.508;2023-04-15T02:31:24;5.17;;;2.10;;
38117;SDS011;23928;47.562;7.508;2023-04-15T02:33:50;3.73;;;1.93;;
38117;SDS011;23928;47.562;7.508;2023-04-15T02:36:16;5.33;;;2.10;;
38117;SDS011;23928;47.562;7.508;2023-04-15T02:38:41;7.37;;;2.40;;
38117;SDS011;23928;47.562;7.508;2023-04-15T02:41:10;5.53;;;2.30;;
38117;SDS011;23928;47.562;7.508;2023-04-15T02:43:36;4.60;;;2.10;;
38117;SDS011;23928;47.562;7.508;2023-04-15T02:46:03;4.50;;;1.93;;
38117;SDS011;23928;47.562;7.508;2023-04-15T02:48:29;3.10;;;1.83;;
38117;SDS011;23928;47.562;7.508;2023-04-15T02:51:14;4.70;;;2.00;;
38117;SDS011;23928;47.562;7.508;2023-04-15T02:53:41;4.20;;;2.27;;
38117;SDS011;23928;47.562;7.508;2023-04-15T02:56:07;3.97;;;2.00;;
38117;SDS011;23928;47.562;7.508;2023-04-15T02:58:34;2.57;;;1.60;;
38117;SDS011;23928;47.562;7.508;2023-04-15T03:01:00;2.57;;;1.90;;
38117;SDS011;23928;47.562;7.508;2023-04-15T03:03:26;3.43;;;1.83;;
38117;SDS011;23928;47.562;7.508;2023-04-15T03:05:52;6.60;;;2.20;;
38117;SDS011;23928;47.562;7.508;2023-04-15T03:08:18;4.57;;;2.57;;
38117;SDS011;23928;47.562;7.508;2023-04-15T03:10:45;2.77;;;2.03;;
38117;SDS011;23928;47.562;7.508;2023-04-15T03:13:11;4.97;;;2.23;;
38117;SDS011;23928;47.562;7.508;2023-04-15T03:15:36;5.23;;;2.33;;
38117;SDS011;23928;47.562;7.508;2023-04-15T03:18:02;5.20;;;2.23;;
38117;SDS011;23928;47.562;7.508;2023-04-15T03:20:28;6.90;;;2.20;;
38117;SDS011;23928;47.562;7.508;2023-04-15T03:22:53;4.43;;;2.17;;
38117;SDS011;23928;47.562;7.508;2023-04-15T03:25:19;4.17;;;2.00;;
38117;SDS011;23928;47.562;7.508;2023-04-15T03:27:44;3.50;;;1.87;;
38117;SDS011;23928;47.562;7.508;2023-04-15T03:30:10;4.47;;;2.00;;
38117;SDS011;23928;47.562;7.508;2023-04-15T03:32:36;5.63;;;2.23;;
38117;SDS011;23928;47.562;7.508;2023-04-15T03:35:02;3.03;;;2.10;;
38117;SDS011;23928;47.562;7.508;2023-04-15T03:37:27;5.37;;;2.27;;
38117;SDS011;23928;47.562;7.508;2023-04-15T03:39:53;3.13;;;2.07;;
38117;SDS011;23928;47.562;7.508;2023-04-15T03:42:19;2.80;;;2.10;;
38117;SDS011;23928;47.562;7.508;2023-04-15T03:44:45;3.63;;;2.23;;
38117;SDS011;23928;47.562;7.508;2023-04-15T03:47:11;2.57;;;2.20;;
38117;SDS011;23928;47.562;7.508;2023-04-15T03:49:36;5.30;;;2.00;;
38117;SDS011;23928;47.562;7.508;2023-04-15T03:52:02;3.60;;;2.07;;
38117;SDS011;23928;47.562;7.508;2023-04-15T03:54:28;3.53;;;2.17;;
38117;SDS011;23928;47.562;7.508;2023-04-15T03:56:53;3.07;;;2.10;;
38117;SDS011;23928;47.562;7.508;2023-04-15T03:59:19;4.27;;;2.00;;
38117;SDS011;23928;47.562;7.508;2023-04-15T04:01:45;6.90;;;2.20;;
38117;SDS011;23928;47.562;7.508;2023-04-15T04:04:11;3.83;;;2.03;;
38117;SDS011;23928;47.562;7.508;2023-04-15T04:06:36;3.37;;;2.13;;
38117;SDS011;23928;47.562;7.508;2023-04-15T04:09:02;2.90;;;2.00;;
38117;SDS011;23928;47.562;7.508;2023-04-15T04:11:27;2.70;;;2.30;;
38117;SDS011;23928;47.562;7.508;2023-04-15T04:13:53;4.17;;;2.03;;
38117;SDS011;23928;47.562;7.508;2023-04-15T04:16:18;2.27;;;1.80;;
38117;SDS011;23928;47.562;7.508;2023-04-15T04:18:44;4.47;;;2.30;;
38117;SDS011;23928;47.562;7.508;2023-04-15T04:21:10;3.87;;;2.10;;
38117;SDS011;23928;47.562;7.508;2023-04-15T04:23:35;4.67;;;1.90;;
38117;SDS011;23928;47.562;7.508;2023-04-15T04:26:01;4.50;;;2.10;;
38117;SDS011;23928;47.562;7.508;2023-04-15T04:28:27;3.20;;;1.83;;
38117;SDS011;23928;47.562;7.508;2023-04-15T04:30:52;3.23;;;2.03;;
38117;SDS011;23928;47.562;7.508;2023-04-15T04:33:18;5.10;;;2.17;;
38117;SDS011;23928;47.562;7.508;2023-04-15T04:35:43;3.50;;;1.90;;
38117;SDS011;23928;47.562;7.508;2023-04-15T04:38:09;5.53;;;2.30;;
38117;SDS011;23928;47.562;7.508;2023-04-15T04:40:35;3.20;;;2.03;;
38117;SDS011;23928;47.562;7.508;2023-04-15T04:43:01;4.13;;;1.93;;
38117;SDS011;23928;47.562;7.508;2023-04-15T04:45:26;3.77;;;1.90;;
38117;SDS011;23928;47.562;7.508;2023-04-15T04:47:52;3.17;;;2.00;;
38117;SDS011;23928;47.562;7.508;2023-04-15T04:50:17;2.83;;;1.90;;
38117;SDS011;23928;47.562;7.508;2023-04-15T04:52:43;3.63;;;1.83;;
38117;SDS011;23928;47.562;7.508;2023-04-15T04:55:08;4.50;;;2.20;;
38117;SDS011;23928;47.562;7.508;2023-04-15T04:57:34;8.03;;;2.43;;
38117;SDS011;23928;47.562;7.508;2023-04-15T05:00:00;4.27;;;2.30;;
38117;SDS011;23928;47.562;7.508;2023-04-15T05:02:28;4.03;;;2.60;;
38117;SDS011;23928;47.562;7.508;2023-04-15T05:04:54;4.60;;;2.87;;
38117;SDS011;23928;47.562;7.508;2023-04-15T05:07:20;5.77;;;3.03;;
38117;SDS011;23928;47.562;7.508;2023-04-15T05:09:46;4.63;;;2.77;;
38117;SDS011;23928;47.562;7.508;2023-04-15T05:12:11;4.03;;;2.47;;
38117;SDS011;23928;47.562;7.508;2023-04-15T05:14:39;7.43;;;3.40;;
38117;SDS011;23928;47.562;7.508;2023-04-15T05:17:05;4.50;;;2.77;;
38117;SDS011;23928;47.562;7.508;2023-04-15T05:19:31;5.43;;;3.00;;
38117;SDS011;23928;47.562;7.508;2023-04-15T05:21:57;5.50;;;3.00;;
38117;SDS011;23928;47.562;7.508;2023-04-15T05:24:22;5.67;;;2.63;;
38117;SDS011;23928;47.562;7.508;2023-04-15T05:26:48;4.03;;;2.60;;
38117;SDS011;23928;47.562;7.508;2023-04-15T05:29:13;3.43;;;2.50;;
38117;SDS011;23928;47.562;7.508;2023-04-15T05:31:39;3.80;;;2.20;;
38117;SDS011;23928;47.562;7.508;2023-04-15T05:34:05;4.60;;;2.67;;
38117;SDS011;23928;47.562;7.508;2023-04-15T05:36:31;5.63;;;2.93;;
38117;SDS011;23928;47.562;7.508;2023-04-15T05:38:57;4.90;;;2.87;;
38117;SDS011;23928;47.562;7.508;2023-04-15T05:41:22;6.10;;;2.67;;
38117;SDS011;23928;47.562;7.508;2023-04-15T05:43:48;5.07;;;2.60;;
38117;SDS011;23928;47.562;7.508;2023-04-15T05:46:13;5.80;;;3.60;;
38117;SDS011;23928;47.562;7.508;2023-04-15T05:48:39;6.93;;;2.80;;
38117;SDS011;23928;47.562;7.508;2023-04-15T05:51:05;4.03;;;2.53;;
38117;SDS011;23928;47.562;7.508;2023-04-15T05:53:31;6.00;;;2.80;;
38117;SDS011;23928;47.562;7.508;2023-04-15T05:55:56;3.90;;;2.50;;
38117;SDS011;23928;47.562;7.508;2023-04-15T05:58:22;5.80;;;2.70;;
38117;SDS011;23928;47.562;7.508;2023-04-15T06:00:47;5.80;;;2.90;;
38117;SDS011;23928;47.562;7.508;2023-04-15T06:03:13;3.70;;;2.77;;
38117;SDS011;23928;47.562;7.508;2023-04-15T06:05:39;6.67;;;2.60;;
38117;SDS011;23928;47.562;7.508;2023-04-15T06:08:05;4.47;;;2.60;;
38117;SDS011;23928;47.562;7.508;2023-04-15T06:10:30;5.00;;;2.80;;
38117;SDS011;23928;47.562;7.508;2023-04-15T06:13:00;4.57;;;2.33;;
38117;SDS011;23928;47.562;7.508;2023-04-15T06:15:27;5.00;;;2.43;;
38117;SDS011;23928;47.562;7.508;2023-04-15T06:17:53;3.23;;;2.40;;
38117;SDS011;23928;47.562;7.508;2023-04-15T06:20:19;4.10;;;2.43;;
38117;SDS011;23928;47.562;7.508;2023-04-15T06:22:44;3.77;;;2.57;;
38117;SDS011;23928;47.562;7.508;2023-04-15T06:25:10;5.87;;;2.90;;
38117;SDS011;23928;47.562;7.508;2023-04-15T06:27:36;7.80;;;2.70;;
38117;SDS011;23928;47.562;7.508;2023-04-15T06:30:02;5.93;;;3.27;;
38117;SDS011;23928;47.562;7.508;2023-04-15T06:32:28;6.13;;;3.43;;
38117;SDS011;23928;47.562;7.508;2023-04-15T06:34:53;6.80;;;4.70;;
38117;SDS011;23928;47.562;7.508;2023-04-15T06:37:19;22.27;;;14.33;;
38117;SDS011;23928;47.562;7.508;2023-04-15T06:39:45;9.30;;;6.00;;
38117;SDS011;23928;47.562;7.508;2023-04-15T06:42:11;6.67;;;3.77;;
38117;SDS011;23928;47.562;7.508;2023-04-15T06:44:36;26.43;;;10.00;;
38117;SDS011;23928;47.562;7.508;2023-04-15T06:47:02;16.87;;;8.50;;
38117;SDS011;23928;47.562;7.508;2023-04-15T06:49:28;8.23;;;5.10;;
38117;SDS011;23928;47.562;7.508;2023-04-15T06:51:53;4.93;;;3.27;;
38117;SDS011;23928;47.562;7.508;2023-04-15T06:54:19;10.30;;;4.23;;
38117;SDS011;23928;47.562;7.508;2023-04-15T06:56:45;9.83;;;4.07;;
38117;SDS011;23928;47.562;7.508;2023-04-15T06:59:11;9.37;;;4.33;;
38117;SDS011;23928;47.562;7.508;2023-04-15T07:01:38;6.90;;;4.27;;
38117;SDS011;23928;47.562;7.508;2023-04-15T07:04:05;10.33;;;4.57;;
38117;SDS011;23928;47.562;7.508;2023-04-15T07:06:31;9.43;;;4.53;;
38117;SDS011;23928;47.562;7.508;2023-04-15T07:08:57;9.47;;;4.30;;
38117;SDS011;23928;47.562;7.508;2023-04-15T07:11:24;7.20;;;4.03;;
38117;SDS011;23928;47.562;7.508;2023-04-15T07:13:50;7.80;;;4.10;;
38117;SDS011;23928;47.562;7.508;2023-04-15T07:16:16;7.33;;;4.10;;
38117;SDS011;23928;47.562;7.508;2023-04-15T07:18:42;6.00;;;3.80;;
38117;SDS011;23928;47.562;7.508;2023-04-15T07:21:08;5.60;;;4.03;;
38117;SDS011;23928;47.562;7.508;2023-04-15T07:23:33;8.40;;;3.97;;
38117;SDS011;23928;47.562;7.508;2023-04-15T07:25:59;9.43;;;5.20;;
38117;SDS011;23928;47.562;7.508;2023-04-15T07:28:25;11.47;;;6.10;;
38117;SDS011;23928;47.562;7.508;2023-04-15T07:30:51;10.60;;;5.40;;
38117;SDS011;23928;47.562;7.508;2023-04-15T07:33:16;8.10;;;4.77;;
38117;SDS011;23928;47.562;7.508;2023-04-15T07:35:42;7.83;;;5.07;;
38117;SDS011;23928;47.562;7.508;2023-04-15T07:38:09;7.13;;;4.47;;
38117;SDS011;23928;47.562;7.508;2023-04-15T07:40:36;5.77;;;4.27;;
38117;SDS011;23928;47.562;7.508;2023-04-15T07:43:03;7.90;;;3.57;;
38117;SDS011;23928;47.562;7.508;2023-04-15T07:45:29;5.87;;;3.27;;
38117;SDS011;23928;47.562;7.508;2023-04-15T07:47:55;6.87;;;3.50;;
38117;SDS011;23928;47.562;7.508;2023-04-15T07:50:21;7.60;;;4.10;;
38117;SDS011;23928;47.562;7.508;2023-04-15T07:52:47;8.07;;;3.20;;
38117;SDS011;23928;47.562;7.508;2023-04-15T07:55:16;4.57;;;3.00;;
38117;SDS011;23928;47.562;7.508;2023-04-15T07:57:45;4.53;;;3.27;;
38117;SDS011;23928;47.562;7.508;2023-04-15T08:00:11;7.50;;;4.20;;
38117;SDS011;23928;47.562;7.508;2023-04-15T08:02:37;6.20;;;3.57;;
38117;SDS011;23928;47.562;7.508;2023-04-15T08:05:03;5.33;;;2.87;;
38117;SDS011;23928;47.562;7.508;2023-04-15T08:07:29;7.53;;;3.50;;
38117;SDS011;23928;47.562;7.508;2023-04-15T08:09:55;7.20;;;3.77;;
38117;SDS011;23928;47.562;7.508;2023-04-15T08:12:21;6.30;;;3.50;;
38117;SDS011;23928;47.562;7.508;2023-04-15T08:14:48;8.13;;;3.60;;
38117;SDS011;23928;47.562;7.508;2023-04-15T08:17:14;8.37;;;4.10;;
38117;SDS011;23928;47.562;7.508;2023-04-15T08:19:40;6.30;;;4.10;;
38117;SDS011;23928;47.562;7.508;2023-04-15T08:22:06;6.97;;;3.80;;
38117;SDS011;23928;47.562;7.508;2023-04-15T08:24:32;9.07;;;4.43;;
38117;SDS011;23928;47.562;7.508;2023-04-15T08:26:58;7.13;;;3.30;;
38117;SDS011;23928;47.562;7.508;2023-04-15T08:29:23;10.20;;;5.37;;
38117;SDS011;23928;47.562;7.508;2023-04-15T08:31:49;8.03;;;3.73;;
38117;SDS011;23928;47.562;7.508;2023-04-15T08:34:15;5.57;;;3.77;;
38117;SDS011;23928;47.562;7.508;2023-04-15T08:36:42;7.53;;;3.50;;
38117;SDS011;23928;47.562;7.508;2023-04-15T08:39:07;4.57;;;2.53;;
38117;SDS011;23928;47.562;7.508;2023-04-15T08:41:33;5.83;;;2.43;;
38117;SDS011;23928;47.562;7.508;2023-04-15T08:44:04;6.67;;;2.83;;
38117;SDS011;23928;47.562;7.508;2023-04-15T08:46:31;4.00;;;2.47;;
38117;SDS011;23928;47.562;7.508;2023-04-15T08:49:02;4.43;;;3.10;;
38117;SDS011;23928;47.562;7.508;2023-04-15T08:51:28;3.60;;;2.33;;
38117;SDS011;23928;47.562;7.508;2023-04-15T08:53:54;4.33;;;2.50;;
38117;SDS011;23928;47.562;7.508;2023-04-15T08:56:22;6.77;;;2.93;;
38117;SDS011;23928;47.562;7.508;2023-04-15T08:58:50;6.07;;;2.97;;
38117;SDS011;23928;47.562;7.508;2023-04-15T09:01:16;4.63;;;3.10;;
38117;SDS011;23928;47.562;7.508;2023-04-15T09:03:42;6.37;;;3.23;;
38117;SDS011;23928;47.562;7.508;2023-04-15T09:06:08;5.77;;;2.83;;
38117;SDS011;23928;47.562;7.508;2023-04-15T09:08:33;6.23;;;3.07;;
38117;SDS011;23928;47.562;7.508;2023-04-15T09:11:00;5.33;;;3.13;;
38117;SDS011;23928;47.562;7.508;2023-04-15T09:13:27;5.57;;;2.67;;
38117;SDS011;23928;47.562;7.508;2023-04-15T09:15:52;5.30;;;3.07;;
38117;SDS011;23928;47.562;7.508;2023-04-15T09:18:52;5.77;;;3.03;;
38117;SDS011;23928;47.562;7.508;2023-04-15T09:21:12;5.10;;;3.00;;
38117;SDS011;23928;47.562;7.508;2023-04-15T09:23:40;6.97;;;3.20;;
38117;SDS011;23928;47.562;7.508;2023-04-15T09:26:18;7.57;;;3.67;;
38117;SDS011;23928;47.562;7.508;2023-04-15T09:28:44;4.17;;;2.90;;
38117;SDS011;23928;47.562;7.508;2023-04-15T09:31:10;4.30;;;3.40;;
38117;SDS011;23928;47.562;7.508;2023-04-15T09:33:35;4.03;;;2.80;;
38117;SDS011;23928;47.562;7.508;2023-04-15T09:36:22;6.73;;;3.30;;
38117;SDS011;23928;47.562;7.508;2023-04-15T09:38:56;4.80;;;3.47;;
38117;SDS011;23928;47.562;7.508;2023-04-15T09:41:23;7.53;;;4.87;;
38117;SDS011;23928;47.562;7.508;2023-04-15T09:43:50;7.30;;;4.37;;
38117;SDS011;23928;47.562;7.508;2023-04-15T09:46:16;6.10;;;3.43;;
38117;SDS011;23928;47.562;7.508;2023-04-15T09:48:41;6.20;;;3.57;;
38117;SDS011;23928;47.562;7.508;2023-04-15T09:51:07;3.70;;;2.50;;
38117;SDS011;23928;47.562;7.508;2023-04-15T09:53:33;2.90;;;2.20;;
38117;SDS011;23928;47.562;7.508;2023-04-15T09:56:00;4.33;;;2.60;;
38117;SDS011;23928;47.562;7.508;2023-04-15T09:58:28;3.40;;;2.87;;
38117;SDS011;23928;47.562;7.508;2023-04-15T10:00:55;4.73;;;2.07;;
38117;SDS011;23928;47.562;7.508;2023-04-15T10:03:27;3.50;;;2.17;;
38117;SDS011;23928;47.562;7.508;2023-04-15T10:05:55;3.30;;;2.00;;
38117;SDS011;23928;47.562;7.508;2023-04-15T10:08:23;2.43;;;2.20;;
38117;SDS011;23928;47.562;7.508;2023-04-15T10:10:51;3.50;;;2.40;;
38117;SDS011;23928;47.562;7.508;2023-04-15T10:13:18;3.47;;;2.00;;
38117;SDS011;23928;47.562;7.508;2023-04-15T10:16:00;2.03;;;1.80;;
38117;SDS011;23928;47.562;7.508;2023-04-15T10:18:35;1.93;;;1.73;;
38117;SDS011;23928;47.562;7.508;2023-04-15T10:21:04;2.10;;;1.20;;
38117;SDS011;23928;47.562;7.508;2023-04-15T10:23:32;1.73;;;1.30;;
38117;SDS011;23928;47.562;7.508;2023-04-15T10:25:58;1.63;;;1.40;;
38117;SDS011;23928;47.562;7.508;2023-04-15T10:28:24;1.70;;;1.37;;
38117;SDS011;23928;47.562;7.508;2023-04-15T10:30:51;1.20;;;1.10;;
38117;SDS011;23928;47.562;7.508;2023-04-15T10:33:18;2.63;;;1.43;;
38117;SDS011;23928;47.562;7.508;2023-04-15T10:35:45;2.37;;;1.50;;
38117;SDS011;23928;47.562;7.508;2023-04-15T10:41:12;1.77;;;1.53;;
38117;SDS011;23928;47.562;7.508;2023-04-15T10:46:17;1.50;;;1.20;;
38117;SDS011;23928;47.562;7.508;2023-04-15T10:48:47;2.43;;;1.70;;
38117;SDS011;23928;47.562;7.508;2023-04-15T10:51:14;2.03;;;1.70;;
38117;SDS011;23928;47.562;7.508;2023-04-15T10:53:40;1.87;;;1.77;;
38117;SDS011;23928;47.562;7.508;2023-04-15T10:56:07;1.27;;;1.13;;
38117;SDS011;23928;47.562;7.508;2023-04-15T10:58:41;1.70;;;1.30;;
38117;SDS011;23928;47.562;7.508;2023-04-15T11:01:07;1.60;;;1.37;;
38117;SDS011;23928;47.562;7.508;2023-04-15T11:03:35;1.60;;;1.40;;
38117;SDS011;23928;47.562;7.508;2023-04-15T11:06:05;2.60;;;1.20;;
38117;SDS011;23928;47.562;7.508;2023-04-15T11:11:19;1.30;;;1.10;;
38117;SDS011;23928;47.562;7.508;2023-04-15T11:13:49;1.57;;;0.80;;
38117;SDS011;23928;47.562;7.508;2023-04-15T11:16:16;1.07;;;0.97;;
38117;SDS011;23928;47.562;7.508;2023-04-15T11:18:42;1.23;;;1.00;;
38117;SDS011;23928;47.562;7.508;2023-04-15T11:21:18;1.30;;;1.20;;
38117;SDS011;23928;47.562;7.508;2023-04-15T11:23:48;1.10;;;1.00;;
38117;SDS011;23928;47.562;7.508;2023-04-15T11:26:15;1.63;;;1.00;;
38117;SDS011;23928;47.562;7.508;2023-04-15T11:28:44;1.63;;;1.30;;
38117;SDS011;23928;47.562;7.508;2023-04-15T11:31:13;1.00;;;0.80;;
38117;SDS011;23928;47.562;7.508;2023-04-15T11:33:54;1.07;;;1.00;;
38117;SDS011;23928;47.562;7.508;2023-04-15T11:36:23;2.93;;;1.53;;
38117;SDS011;23928;47.562;7.508;2023-04-15T11:38:51;1.23;;;1.07;;
38117;SDS011;23928;47.562;7.508;2023-04-15T11:41:20;2.07;;;0.97;;
38117;SDS011;23928;47.562;7.508;2023-04-15T11:43:46;2.93;;;1.00;;
38117;SDS011;23928;47.562;7.508;2023-04-15T11:46:12;1.40;;;1.30;;
38117;SDS011;23928;47.562;7.508;2023-04-15T11:48:40;9.10;;;4.63;;
38117;SDS011;23928;47.562;7.508;2023-04-15T11:51:07;5.13;;;3.90;;
38117;SDS011;23928;47.562;7.508;2023-04-15T11:56:06;4.63;;;2.67;;
38117;SDS011;23928;47.562;7.508;2023-04-15T11:58:34;9.90;;;8.00;;
38117;SDS011;23928;47.562;7.508;2023-04-15T12:01:04;12.33;;;10.00;;
38117;SDS011;23928;47.562;7.508;2023-04-15T12:06:23;4.63;;;1.77;;
38117;SDS011;23928;47.562;7.508;2023-04-15T12:11:38;1.37;;;1.00;;
38117;SDS011;23928;47.562;7.508;2023-04-15T12:14:08;1.57;;;1.47;;
38117;SDS011;23928;47.562;7.508;2023-04-15T12:16:35;1.80;;;1.50;;
38117;SDS011;23928;47.562;7.508;2023-04-15T12:19:06;1.10;;;0.83;;
38117;SDS011;23928;47.562;7.508;2023-04-15T12:21:35;1.00;;;0.90;;
38117;SDS011;23928;47.562;7.508;2023-04-15T12:24:03;1.03;;;0.93;;
38117;SDS011;23928;47.562;7.508;2023-04-15T12:26:52;1.77;;;0.70;;
38117;SDS011;23928;47.562;7.508;2023-04-15T12:29:18;1.07;;;0.70;;
38117;SDS011;23928;47.562;7.508;2023-04-15T12:32:27;0.93;;;0.70;;
38117;SDS011;23928;47.562;7.508;2023-04-15T12:34:36;0.67;;;0.67;;
38117;SDS011;23928;47.562;7.508;2023-04-15T12:37:10;1.23;;;1.10;;
38117;SDS011;23928;47.562;7.508;2023-04-15T12:39:38;1.70;;;1.00;;
38117;SDS011;23928;47.562;7.508;2023-04-15T12:42:05;1.03;;;0.93;;
38117;SDS011;23928;47.562;7.508;2023-04-15T12:44:32;0.70;;;0.70;;
38117;SDS011;23928;47.562;7.508;2023-04-15T12:46:59;0.50;;;0.50;;
38117;SDS011;23928;47.562;7.508;2023-04-15T12:49:25;1.40;;;0.70;;
38117;SDS011;23928;47.562;7.508;2023-04-15T12:51:52;1.10;;;0.70;;
38117;SDS011;23928;47.562;7.508;2023-04-15T12:54:19;1.17;;;0.87;;
38117;SDS011;23928;47.562;7.508;2023-04-15T12:56:45;0.93;;;0.80;;
38117;SDS011;23928;47.562;7.508;2023-04-15T12:59:12;0.60;;;0.60;;
38117;SDS011;23928;47.562;7.508;2023-04-15T13:01:38;0.70;;;0.70;;
38117;SDS011;23928;47.562;7.508;2023-04-15T13:04:05;0.77;;;0.77;;
38117;SDS011;23928;47.562;7.508;2023-04-15T13:06:31;1.13;;;1.07;;
38117;SDS011;23928;47.562;7.508;2023-04-15T13:09:00;0.60;;;0.60;;
38117;SDS011;23928;47.562;7.508;2023-04-15T13:11:27;0.50;;;0.50;;
38117;SDS011;23928;47.562;7.508;2023-04-15T13:13:55;0.87;;;0.87;;
38117;SDS011;23928;47.562;7.508;2023-04-15T13:16:21;2.67;;;1.07;;
38117;SDS011;23928;47.562;7.508;2023-04-15T13:18:47;3.73;;;1.73;;
38117;SDS011;23928;47.562;7.508;2023-04-15T13:21:13;0.80;;;0.60;;
38117;SDS011;23928;47.562;7.508;2023-04-15T13:23:42;0.40;;;0.40;;
38117;SDS011;23928;47.562;7.508;2023-04-15T13:26:07;1.73;;;0.50;;
38117;SDS011;23928;47.562;7.508;2023-04-15T13:28:33;0.70;;;0.70;;
38117;SDS011;23928;47.562;7.508;2023-04-15T13:30:59;0.53;;;0.53;;
38117;SDS011;23928;47.562;7.508;2023-04-15T13:33:25;1.00;;;0.53;;
38117;SDS011;23928;47.562;7.508;2023-04-15T13:35:51;0.40;;;0.40;;
38117;SDS011;23928;47.562;7.508;2023-04-15T13:38:17;0.57;;;0.53;;
38117;SDS011;23928;47.562;7.508;2023-04-15T13:40:43;0.63;;;0.63;;
38117;SDS011;23928;47.562;7.508;2023-04-15T13:43:09;0.60;;;0.60;;
38117;SDS011;23928;47.562;7.508;2023-04-15T13:45:35;1.17;;;0.80;;
38117;SDS011;23928;47.562;7.508;2023-04-15T13:48:00;0.60;;;0.60;;
38117;SDS011;23928;47.562;7.508;2023-04-15T13:50:26;0.70;;;0.70;;
38117;SDS011;23928;47.562;7.508;2023-04-15T13:52:52;0.50;;;0.50;;
38117;SDS011;23928;47.562;7.508;2023-04-15T13:55:18;1.23;;;0.60;;
38117;SDS011;23928;47.562;7.508;2023-04-15T13:57:43;0.83;;;0.70;;
38117;SDS011;23928;47.562;7.508;2023-04-15T14:00:10;1.73;;;1.00;;
38117;SDS011;23928;47.562;7.508;2023-04-15T14:02:36;4.37;;;2.50;;
38117;SDS011;23928;47.562;7.508;2023-04-15T14:05:01;1.30;;;1.20;;
38117;SDS011;23928;47.562;7.508;2023-04-15T14:07:28;12.13;;;2.07;;
38117;SDS011;23928;47.562;7.508;2023-04-15T14:09:54;0.50;;;0.50;;
38117;SDS011;23928;47.562;7.508;2023-04-15T14:12:20;4.83;;;0.60;;
38117;SDS011;23928;47.562;7.508;2023-04-15T14:14:46;2.23;;;0.90;;
38117;SDS011;23928;47.562;7.508;2023-04-15T14:17:11;0.90;;;0.60;;
38117;SDS011;23928;47.562;7.508;2023-04-15T14:19:37;1.17;;;0.83;;
38117;SDS011;23928;47.562;7.508;2023-04-15T14:22:03;3.43;;;3.13;;
38117;SDS011;23928;47.562;7.508;2023-04-15T14:24:28;4.20;;;3.77;;
38117;SDS011;23928;47.562;7.508;2023-04-15T14:26:54;4.07;;;3.07;;
38117;SDS011;23928;47.562;7.508;2023-04-15T14:29:21;4.30;;;3.87;;
38117;SDS011;23928;47.562;7.508;2023-04-15T14:31:47;4.83;;;4.00;;
38117;SDS011;23928;47.562;7.508;2023-04-15T14:34:13;3.13;;;2.83;;
38117;SDS011;23928;47.562;7.508;2023-04-15T14:36:39;1.63;;;0.90;;
38117;SDS011;23928;47.562;7.508;2023-04-15T14:39:05;0.77;;;0.77;;
38117;SDS011;23928;47.562;7.508;2023-04-15T14:41:32;1.60;;;1.20;;
38117;SDS011;23928;47.562;7.508;2023-04-15T14:43:57;2.27;;;0.80;;
38117;SDS011;23928;47.562;7.508;2023-04-15T14:46:24;0.70;;;0.70;;
38117;SDS011;23928;47.562;7.508;2023-04-15T14:48:50;1.10;;;1.00;;
38117;SDS011;23928;47.562;7.508;2023-04-15T14:51:15;1.33;;;0.70;;
38117;SDS011;23928;47.562;7.508;2023-04-15T14:53:41;1.00;;;0.50;;
38117;SDS011;23928;47.562;7.508;2023-04-15T14:56:07;1.37;;;0.87;;
38117;SDS011;23928;47.562;7.508;2023-04-15T14:58:33;1.03;;;0.70;;
38117;SDS011;23928;47.562;7.508;2023-04-15T15:00:59;1.63;;;1.43;;